createdAt,value
2023-05-13T00:00:51.624Z,11.30
2023-05-13T00:03:19.321Z,11.20
2023-05-13T00:05:47.052Z,11.20
2023-05-13T00:08:14.593Z,11.10
2023-05-13T00:10:41.867Z,11.10
2023-05-13T00:13:09.550Z,11.00
2023-05-13T00:15:37.032Z,10.90
2023-05-13T00:18:04.807Z,10.80
2023-05-13T00:20:32.012Z,10.80
2023-05-13T00:22:59.633Z,10.80
2023-05-13T00:25:26.884Z,10.60
2023-05-13T00:27:54.510Z,10.60
2023-05-13T00:30:22.104Z,10.50
2023-05-13T00:32:49.738Z,10.50
2023-05-13T00:35:17.520Z,10.40
2023-05-13T00:37:44.991Z,10.40
2023-05-13T00:40:21.552Z,10.40
2023-05-13T00:42:49.600Z,10.40
2023-05-13T00:45:17.366Z,10.40
2023-05-13T00:47:45.034Z,10.30
2023-05-13T00:50:14.284Z,10.30
2023-05-13T00:52:43.118Z,10.20
2023-05-13T00:55:11.372Z,10.20
2023-05-13T00:57:40.264Z,10.20
2023-05-13T01:00:09.264Z,10.20
2023-05-13T01:02:45.876Z,10.20
2023-05-13T01:05:49.535Z,10.20
2023-05-13T01:08:42.345Z,10.30
2023-05-13T01:11:29.745Z,10.30
2023-05-13T01:14:09.463Z,10.30
2023-05-13T01:16:49.476Z,10.30
2023-05-13T01:19:38.858Z,10.30
2023-05-13T01:22:07.262Z,10.30
2023-05-13T01:24:34.647Z,10.30
2023-05-13T01:27:02.485Z,10.20
2023-05-13T01:29:31.353Z,10.20
2023-05-13T01:32:00.641Z,10.10
2023-05-13T01:34:29.295Z,10.10
2023-05-13T01:36:57.779Z,10.10
2023-05-13T01:39:25.820Z,10.10
2023-05-13T01:41:57.441Z,10.10
2023-05-13T01:44:25.473Z,10.10
2023-05-13T01:46:53.687Z,10.10
2023-05-13T01:49:21.634Z,10.10
2023-05-13T01:51:49.055Z,10.10
2023-05-13T01:54:16.443Z,10.10
2023-05-13T01:56:49.083Z,10.00
2023-05-13T01:59:16.519Z,10.10
2023-05-13T02:01:45.718Z,10.10
2023-05-13T02:04:13.009Z,10.10
2023-05-13T02:06:42.418Z,10.00
2023-05-13T02:09:10.185Z,10.00
2023-05-13T02:11:40.900Z,9.90
2023-05-13T02:14:08.349Z,9.90
2023-05-13T02:16:38.429Z,9.80
2023-05-13T02:19:07.539Z,9.80
2023-05-13T02:21:35.237Z,9.80
2023-05-13T02:24:02.667Z,9.80
2023-05-13T02:26:30.144Z,9.80
2023-05-13T02:28:57.763Z,9.80
2023-05-13T02:31:25.669Z,9.80
2023-05-13T02:33:52.914Z,9.90
2023-05-13T02:36:20.592Z,9.90
2023-05-13T02:38:49.159Z,10.00
2023-05-13T02:41:17.780Z,10.00
2023-05-13T02:43:45.204Z,10.00
2023-05-13T02:46:12.979Z,10.00
2023-05-13T02:48:40.545Z,10.00
2023-05-13T02:51:09.576Z,10.00
2023-05-13T02:53:37.416Z,10.00
2023-05-13T02:56:07.746Z,10.00
2023-05-13T02:58:36.787Z,10.10
2023-05-13T03:01:04.396Z,10.10
2023-05-13T03:03:31.769Z,10.20
2023-05-13T03:06:00.470Z,10.20
2023-05-13T03:08:28.167Z,10.20
2023-05-13T03:10:55.854Z,10.30
2023-05-13T03:13:23.063Z,10.30
2023-05-13T03:15:50.672Z,10.40
2023-05-13T03:18:18.157Z,10.50
2023-05-13T03:20:45.953Z,10.50
2023-05-13T03:23:13.525Z,10.60
2023-05-13T03:25:42.283Z,10.70
2023-05-13T03:28:09.907Z,10.80
2023-05-13T03:30:42.612Z,10.80
2023-05-13T03:33:14.641Z,10.90
2023-05-13T03:35:42.184Z,10.90
2023-05-13T03:38:09.484Z,10.90
2023-05-13T03:40:42.326Z,11.00
2023-05-13T03:43:09.645Z,11.00
2023-05-13T03:45:39.577Z,11.00
2023-05-13T03:48:10.358Z,11.10
2023-05-13T03:50:37.871Z,11.20
2023-05-13T03:53:05.313Z,11.20
2023-05-13T03:55:35.089Z,11.20
2023-05-13T03:58:12.379Z,11.40
2023-05-13T04:00:40.019Z,11.40
2023-05-13T04:03:07.370Z,11.50
2023-05-13T04:05:34.962Z,11.60
2023-05-13T04:08:02.254Z,11.60
2023-05-13T04:10:29.890Z,11.70
2023-05-13T04:12:58.052Z,11.70
2023-05-13T04:15:25.710Z,11.80
2023-05-13T04:17:53.898Z,11.90
2023-05-13T04:20:21.860Z,11.90
2023-05-13T04:22:49.264Z,12.00
2023-05-13T04:25:16.842Z,12.10
2023-05-13T04:27:44.378Z,12.20
2023-05-13T04:30:17.271Z,12.30
2023-05-13T04:32:45.275Z,12.40
2023-05-13T04:35:13.586Z,12.50
2023-05-13T04:37:43.861Z,12.50
2023-05-13T04:40:15.017Z,12.60
2023-05-13T04:42:42.464Z,12.60
2023-05-13T04:45:10.802Z,12.70
2023-05-13T04:47:38.302Z,12.70
2023-05-13T04:50:07.558Z,12.80
2023-05-13T04:52:37.286Z,12.80
2023-05-13T04:55:05.367Z,12.90
2023-05-13T04:57:34.515Z,13.00
2023-05-13T05:00:03.756Z,13.00
2023-05-13T05:02:34.418Z,13.10
2023-05-13T05:05:01.675Z,13.20
2023-05-13T05:07:29.748Z,13.30
2023-05-13T05:09:57.362Z,13.30
2023-05-13T05:12:27.129Z,13.40
2023-05-13T05:14:54.277Z,13.40
2023-05-13T05:17:21.842Z,13.50
2023-05-13T05:19:49.181Z,13.60
2023-05-13T05:22:17.008Z,13.70
2023-05-13T05:24:47.822Z,13.70
2023-05-13T05:27:15.503Z,13.90
2023-05-13T05:29:42.752Z,13.90
2023-05-13T05:32:10.508Z,14.00
2023-05-13T05:34:38.399Z,14.10
2023-05-13T05:37:06.488Z,14.20
2023-05-13T05:39:35.478Z,14.30
2023-05-13T05:42:03.895Z,14.30
2023-05-13T05:44:31.684Z,14.40
2023-05-13T05:46:59.466Z,14.50
2023-05-13T05:49:27.517Z,14.50
2023-05-13T05:51:55.280Z,14.60
2023-05-13T05:54:22.970Z,14.70
2023-05-13T05:56:50.476Z,14.80
2023-05-13T05:59:18.005Z,14.90
2023-05-13T06:01:46.231Z,15.00
2023-05-13T06:04:13.623Z,15.00
2023-05-13T06:06:41.290Z,15.10
2023-05-13T06:09:09.042Z,15.20
2023-05-13T06:11:36.795Z,15.30
2023-05-13T06:14:04.162Z,15.30
2023-05-13T06:16:31.820Z,15.40
2023-05-13T06:19:00.931Z,15.50
2023-05-13T06:21:28.436Z,15.60
2023-05-13T06:23:56.042Z,15.60
2023-05-13T06:26:23.620Z,15.70
2023-05-13T06:28:50.871Z,15.80
2023-05-13T06:31:18.682Z,15.80
2023-05-13T06:33:47.039Z,15.90
2023-05-13T06:36:14.657Z,16.00
2023-05-13T06:38:42.038Z,16.10
2023-05-13T06:41:09.600Z,16.10
2023-05-13T06:43:39.158Z,16.20
2023-05-13T06:46:20.582Z,16.30
2023-05-13T06:48:47.887Z,16.40
2023-05-13T06:51:15.649Z,16.50
2023-05-13T06:53:42.903Z,16.50
2023-05-13T06:56:11.181Z,16.60
2023-05-13T06:58:38.357Z,16.60
2023-05-13T07:01:06.093Z,16.70
2023-05-13T07:03:34.813Z,16.80
2023-05-13T07:06:02.313Z,16.90
2023-05-13T07:08:29.558Z,17.00
2023-05-13T07:10:57.087Z,17.00
2023-05-13T07:13:24.754Z,17.00
2023-05-13T07:15:53.064Z,17.10
2023-05-13T07:18:20.415Z,17.10
2023-05-13T07:20:48.016Z,17.20
2023-05-13T07:23:16.432Z,17.20
2023-05-13T07:25:44.264Z,17.30
2023-05-13T07:28:11.505Z,17.30
2023-05-13T07:30:42.029Z,17.40
2023-05-13T07:33:09.341Z,17.40
2023-05-13T07:35:37.684Z,17.50
2023-05-13T07:38:05.254Z,17.60
2023-05-13T07:40:32.703Z,17.60
2023-05-13T07:43:00.038Z,17.70
2023-05-13T07:45:27.858Z,17.70
2023-05-13T07:47:55.272Z,17.80
2023-05-13T07:50:23.031Z,17.80
2023-05-13T07:52:51.779Z,17.90
2023-05-13T07:55:19.694Z,18.00
2023-05-13T07:57:46.980Z,18.00
2023-05-13T08:00:15.790Z,18.10
2023-05-13T08:02:43.936Z,18.10
2023-05-13T08:05:12.428Z,18.20
2023-05-13T08:07:39.780Z,18.20
2023-05-13T08:10:07.839Z,18.20
2023-05-13T08:12:35.339Z,18.30
2023-05-13T08:15:06.220Z,18.30
2023-05-13T08:17:34.585Z,18.40
2023-05-13T08:20:03.637Z,18.50
2023-05-13T08:22:31.102Z,18.60
2023-05-13T08:25:01.045Z,18.60
2023-05-13T08:27:28.961Z,18.80
2023-05-13T08:29:56.807Z,18.80
2023-05-13T08:32:24.090Z,18.80
2023-05-13T08:34:51.622Z,18.90
2023-05-13T08:37:18.885Z,18.80
2023-05-13T08:39:46.533Z,18.80
2023-05-13T08:42:19.385Z,18.90
2023-05-13T08:44:48.317Z,19.00
2023-05-13T08:47:21.746Z,19.00
2023-05-13T08:49:50.772Z,19.10
2023-05-13T08:52:20.796Z,19.10
2023-05-13T08:54:49.695Z,19.20
2023-05-13T08:57:17.062Z,19.30
2023-05-13T08:59:44.707Z,19.30
2023-05-13T09:02:12.265Z,19.40
2023-05-13T09:04:42.209Z,19.60
2023-05-13T09:07:09.850Z,19.60
2023-05-13T09:09:37.764Z,19.70
2023-05-13T09:12:05.939Z,19.70
2023-05-13T09:14:33.561Z,19.50
2023-05-13T09:17:04.114Z,19.50
2023-05-13T09:19:36.466Z,19.70
2023-05-13T09:22:03.743Z,19.90
2023-05-13T09:24:31.265Z,20.00
2023-05-13T09:26:58.451Z,20.00
2023-05-13T09:29:29.465Z,19.90
2023-05-13T09:31:59.551Z,19.70
2023-05-13T09:34:31.321Z,19.90
2023-05-13T09:37:06.707Z,20.30
2023-05-13T09:39:41.856Z,20.60
2023-05-13T09:42:16.786Z,20.80
2023-05-13T09:44:48.144Z,21.10
2023-05-13T09:47:17.036Z,21.10
2023-05-13T09:49:46.004Z,21.10
2023-05-13T09:52:16.969Z,21.30
2023-05-13T09:54:44.882Z,21.30
2023-05-13T09:57:13.966Z,21.30
2023-05-13T09:59:42.000Z,21.40
2023-05-13T10:02:10.321Z,21.60
2023-05-13T10:04:38.374Z,21.60
2023-05-13T10:07:06.699Z,21.70
2023-05-13T10:09:36.544Z,21.70
2023-05-13T10:12:07.459Z,22.00
2023-05-13T10:14:37.370Z,22.00
2023-05-13T10:17:06.633Z,22.00
2023-05-13T10:19:34.908Z,21.70
2023-05-13T10:22:02.964Z,21.70
2023-05-13T10:24:31.278Z,21.30
2023-05-13T10:27:02.029Z,21.70
2023-05-13T10:29:30.813Z,22.00
2023-05-13T10:32:00.040Z,22.00
2023-05-13T10:34:28.838Z,22.20
2023-05-13T10:37:13.820Z,22.30
2023-05-13T10:40:05.001Z,22.30
2023-05-13T10:42:43.101Z,22.10
2023-05-13T10:45:11.074Z,22.10
2023-05-13T10:47:39.819Z,22.20
2023-05-13T10:50:34.816Z,22.20
2023-05-13T10:53:03.386Z,22.60
2023-05-13T10:55:31.058Z,22.80
2023-05-13T10:58:07.508Z,22.80
2023-05-13T11:00:39.011Z,23.10
2023-05-13T11:03:15.375Z,22.80
2023-05-13T11:06:00.828Z,22.90
2023-05-13T11:08:45.289Z,22.70
2023-05-13T11:11:20.904Z,22.80
2023-05-13T11:13:56.253Z,23.00
2023-05-13T11:16:24.572Z,23.00
2023-05-13T11:18:53.173Z,23.00
2023-05-13T11:21:32.561Z,22.90
2023-05-13T11:24:04.388Z,22.90
2023-05-13T11:26:51.767Z,22.80
2023-05-13T11:29:37.445Z,22.10
2023-05-13T11:32:07.048Z,22.20
2023-05-13T11:34:34.991Z,21.90
2023-05-13T11:37:03.504Z,22.00
2023-05-13T11:39:31.673Z,22.10
2023-05-13T11:42:17.688Z,22.00
2023-05-13T11:44:49.566Z,22.20
2023-05-13T11:47:26.341Z,22.10
2023-05-13T11:49:53.995Z,22.40
2023-05-13T11:52:21.296Z,22.40
2023-05-13T11:54:50.642Z,22.50
2023-05-13T11:57:18.071Z,22.50
2023-05-13T11:59:57.808Z,22.20
2023-05-13T12:02:28.927Z,21.80
2023-05-13T12:05:02.012Z,22.10
2023-05-13T12:07:29.365Z,21.80
2023-05-13T12:09:59.318Z,21.70
2023-05-13T12:12:28.332Z,22.00
2023-05-13T12:15:00.095Z,22.10
2023-05-13T12:17:27.577Z,22.20
2023-05-13T12:20:14.862Z,22.50
2023-05-13T12:22:45.119Z,22.30
2023-05-13T12:25:38.151Z,22.40
2023-05-13T12:28:19.015Z,22.80
2023-05-13T12:31:00.359Z,22.70
2023-05-13T12:33:41.787Z,22.40
2023-05-13T12:36:33.805Z,22.10
2023-05-13T12:39:02.544Z,22.70
2023-05-13T12:41:37.593Z,23.10
2023-05-13T12:44:09.264Z,23.40
2023-05-13T12:46:37.846Z,23.30
2023-05-13T12:49:06.212Z,23.40
2023-05-13T12:51:34.325Z,22.80
2023-05-13T12:54:02.006Z,22.50
2023-05-13T12:56:29.799Z,22.80
2023-05-13T12:58:59.510Z,23.00
2023-05-13T13:01:27.333Z,22.90
2023-05-13T13:03:56.414Z,22.80
2023-05-13T13:06:25.166Z,23.20
2023-05-13T13:08:52.396Z,23.10
2023-05-13T13:11:19.908Z,22.90
2023-05-13T13:13:48.295Z,23.20
2023-05-13T13:16:15.988Z,22.80
2023-05-13T13:18:43.448Z,23.30
2023-05-13T13:21:11.326Z,23.30
2023-05-13T13:23:38.951Z,23.40
2023-05-13T13:26:07.264Z,23.80
2023-05-13T13:28:34.707Z,23.60
2023-05-13T13:31:02.418Z,24.00
2023-05-13T13:33:29.855Z,23.90
2023-05-13T13:35:57.458Z,23.50
2023-05-13T13:38:24.864Z,23.30
2023-05-13T13:40:52.567Z,23.20
2023-05-13T13:43:19.889Z,23.30
2023-05-13T13:45:47.522Z,23.60
2023-05-13T13:48:14.926Z,23.80
2023-05-13T13:50:42.585Z,23.70
2023-05-13T13:53:09.856Z,23.60
2023-05-13T13:55:37.412Z,23.70
2023-05-13T13:58:04.618Z,23.90
2023-05-13T14:00:32.191Z,24.80
2023-05-13T14:03:00.818Z,24.80
2023-05-13T14:05:28.948Z,25.00
2023-05-13T14:07:56.488Z,25.80
2023-05-13T14:10:24.118Z,25.60
2023-05-13T14:12:51.966Z,25.10
2023-05-13T14:15:19.435Z,24.40
2023-05-13T14:17:46.849Z,24.00
2023-05-13T14:20:14.395Z,23.70
2023-05-13T14:22:41.649Z,23.70
2023-05-13T14:25:09.789Z,24.10
2023-05-13T14:27:37.524Z,25.00
2023-05-13T14:30:06.795Z,26.10
2023-05-13T14:32:34.535Z,26.20
2023-05-13T14:35:02.068Z,25.50
2023-05-13T14:37:29.308Z,28.40
2023-05-13T14:42:24.536Z,33.80
2023-05-13T14:49:48.905Z,40.10
2023-05-13T14:52:16.133Z,45.70
2023-05-13T14:57:11.418Z,45.00
2023-05-13T14:59:39.017Z,45.20
2023-05-13T15:02:06.332Z,45.70
2023-05-13T15:07:03.653Z,47.40
2023-05-13T15:09:31.277Z,46.20
2023-05-13T15:21:51.218Z,47.30
2023-05-13T15:24:18.883Z,50.50
2023-05-13T15:26:48.316Z,48.40
2023-05-13T15:31:43.944Z,42.80
2023-05-13T15:34:11.551Z,43.40
2023-05-13T15:36:38.937Z,45.30
2023-05-13T15:39:07.520Z,47.00
2023-05-13T15:41:34.923Z,48.20
2023-05-13T15:44:02.610Z,48.10
2023-05-13T15:46:35.125Z,48.20
2023-05-13T15:49:03.286Z,49.10
2023-05-13T15:51:30.469Z,45.70
2023-05-13T15:53:57.980Z,46.50
2023-05-13T15:56:25.830Z,47.50
2023-05-13T15:58:55.777Z,47.50
2023-05-13T16:01:23.163Z,48.00
2023-05-13T16:03:50.720Z,47.80
2023-05-13T16:06:18.053Z,46.10
2023-05-13T16:08:45.811Z,40.50
2023-05-13T16:11:14.291Z,35.70
2023-05-13T16:13:41.837Z,34.90
2023-05-13T16:16:09.230Z,34.70
2023-05-13T16:18:37.025Z,38.60
2023-05-13T16:21:04.676Z,40.20
2023-05-13T16:23:32.111Z,42.10
2023-05-13T16:25:59.585Z,43.00
2023-05-13T16:33:39.589Z,43.70
2023-05-13T16:36:21.921Z,42.90
2023-05-13T16:38:57.404Z,42.60
2023-05-13T16:41:33.301Z,43.40
2023-05-13T16:44:15.467Z,42.40
2023-05-13T16:46:42.960Z,42.30
2023-05-13T16:49:31.208Z,42.70
2023-05-13T16:52:15.988Z,42.60
2023-05-13T16:54:54.028Z,42.00
2023-05-13T16:57:36.199Z,41.60
2023-05-13T17:02:47.581Z,41.70
2023-05-13T17:05:15.215Z,40.50
2023-05-13T17:07:42.928Z,40.30
2023-05-13T17:10:10.637Z,40.40
2023-05-13T17:12:38.413Z,39.90
2023-05-13T17:15:06.744Z,39.70
2023-05-13T17:17:34.294Z,38.80
2023-05-13T17:20:01.535Z,37.40
2023-05-13T17:22:29.130Z,37.40
2023-05-13T17:24:56.462Z,37.00
2023-05-13T17:27:24.248Z,36.90
2023-05-13T17:29:51.619Z,36.10
2023-05-13T17:32:19.205Z,35.70
2023-05-13T17:34:46.493Z,34.90
2023-05-13T17:37:14.150Z,33.50
2023-05-13T17:39:41.421Z,31.30
2023-05-13T17:42:09.399Z,29.50
2023-05-13T17:44:36.902Z,27.80
2023-05-13T17:47:04.919Z,26.30
2023-05-13T17:49:32.234Z,25.40
2023-05-13T17:51:59.627Z,24.70
2023-05-13T17:54:26.918Z,24.00
2023-05-13T17:56:54.362Z,23.50
2023-05-13T17:59:21.631Z,23.10
2023-05-13T18:01:49.223Z,22.60
2023-05-13T18:04:16.768Z,22.10
2023-05-13T18:06:44.384Z,21.70
2023-05-13T18:09:12.032Z,21.40
2023-05-13T18:11:39.831Z,21.10
2023-05-13T18:14:07.243Z,20.80
2023-05-13T18:16:34.964Z,20.50
2023-05-13T18:19:02.435Z,20.30
2023-05-13T18:21:31.211Z,20.10
2023-05-13T18:23:58.580Z,19.80
2023-05-13T18:26:26.704Z,19.60
2023-05-13T18:28:54.047Z,19.30
2023-05-13T18:31:21.709Z,19.10
2023-05-13T18:33:48.906Z,18.90
2023-05-13T18:36:17.173Z,18.70
2023-05-13T18:38:48.030Z,18.50
2023-05-13T18:41:16.258Z,18.30
2023-05-13T18:43:43.887Z,18.10
2023-05-13T18:46:11.949Z,17.80
2023-05-13T18:48:39.464Z,17.70
2023-05-13T18:51:07.112Z,17.50
2023-05-13T18:53:34.359Z,17.30
2023-05-13T18:56:02.300Z,17.20
2023-05-13T18:58:29.623Z,17.00
2023-05-13T19:00:57.166Z,16.90
2023-05-13T19:03:24.665Z,16.70
2023-05-13T19:05:52.757Z,16.50
2023-05-13T19:08:19.987Z,16.40
2023-05-13T19:10:47.785Z,16.30
2023-05-13T19:13:16.928Z,16.10
2023-05-13T19:15:44.531Z,16.00
2023-05-13T19:18:13.120Z,15.90
2023-05-13T19:20:41.224Z,15.80
2023-05-13T19:23:08.561Z,15.60
2023-05-13T19:25:37.918Z,15.50
2023-05-13T19:28:05.227Z,15.40
2023-05-13T19:30:32.796Z,15.40
2023-05-13T19:33:00.249Z,15.20
2023-05-13T19:35:27.951Z,15.20
2023-05-13T19:37:56.220Z,15.10
2023-05-13T19:40:24.115Z,14.90
2023-05-13T19:42:51.551Z,14.80
2023-05-13T19:45:21.367Z,14.70
2023-05-13T19:47:49.641Z,14.70
2023-05-13T19:50:18.757Z,14.60
2023-05-13T19:52:46.002Z,14.50
2023-05-13T19:55:13.873Z,14.40
2023-05-13T19:57:42.354Z,14.40
2023-05-13T20:00:11.646Z,14.30
2023-05-13T20:02:39.552Z,14.20
2023-05-13T20:05:08.907Z,14.10
2023-05-13T20:07:36.585Z,14.00
2023-05-13T20:10:04.896Z,13.90
2023-05-13T20:12:32.619Z,13.90
2023-05-13T20:15:01.213Z,13.80
2023-05-13T20:17:28.705Z,13.70
2023-05-13T20:19:56.455Z,13.70
2023-05-13T20:22:23.704Z,13.60
2023-05-13T20:24:51.665Z,13.60
2023-05-13T20:27:18.910Z,13.50
2023-05-13T20:29:47.983Z,13.40
2023-05-13T20:32:24.372Z,13.30
2023-05-13T20:34:54.626Z,13.20
2023-05-13T20:37:23.985Z,13.10
2023-05-13T20:39:52.525Z,13.10
2023-05-13T20:42:22.957Z,13.00
2023-05-13T20:44:50.937Z,13.00
2023-05-13T20:47:19.071Z,12.90
2023-05-13T20:49:47.256Z,12.90
2023-05-13T20:52:14.701Z,12.80
2023-05-13T20:54:42.192Z,12.70
2023-05-13T20:57:09.702Z,12.70
2023-05-13T20:59:37.500Z,12.60
2023-05-13T21:02:05.089Z,12.60
2023-05-13T21:04:32.737Z,12.50
2023-05-13T21:07:00.280Z,12.50
2023-05-13T21:09:28.174Z,12.50
2023-05-13T21:11:56.271Z,12.40
2023-05-13T21:14:24.192Z,12.30
2023-05-13T21:16:51.493Z,12.30
2023-05-13T21:19:21.471Z,12.30
2023-05-13T21:21:48.796Z,12.20
2023-05-13T21:24:18.315Z,12.10
2023-05-13T21:26:46.368Z,12.10
2023-05-13T21:29:13.910Z,12.10
2023-05-13T21:31:41.458Z,12.00
2023-05-13T21:34:09.350Z,12.00
2023-05-13T21:36:39.464Z,11.90
2023-05-13T21:39:09.462Z,11.90
2023-05-13T21:41:37.208Z,11.90
2023-05-13T21:44:04.839Z,11.80
2023-05-13T21:46:32.267Z,11.70
2023-05-13T21:49:00.566Z,11.60
2023-05-13T21:51:28.620Z,11.50
2023-05-13T21:53:56.278Z,11.50
2023-05-13T21:56:23.454Z,11.40
2023-05-13T21:58:51.549Z,11.40
2023-05-13T22:01:18.870Z,11.40
2023-05-13T22:03:46.777Z,11.40
2023-05-13T22:06:14.461Z,11.40
2023-05-13T22:08:42.022Z,11.40
2023-05-13T22:11:09.287Z,11.30
2023-05-13T22:13:36.748Z,11.30
2023-05-13T22:16:04.399Z,11.30
2023-05-13T22:18:33.886Z,11.30
2023-05-13T22:21:01.471Z,11.30
2023-05-13T22:23:28.907Z,11.20
2023-05-13T22:25:56.562Z,11.20
2023-05-13T22:28:24.234Z,11.10
2023-05-13T22:30:52.122Z,11.00
2023-05-13T22:33:19.882Z,11.00
2023-05-13T22:35:47.629Z,10.90
2023-05-13T22:38:15.257Z,10.90
2023-05-13T22:40:42.834Z,10.90
2023-05-13T22:43:10.731Z,10.90
2023-05-13T22:45:37.990Z,10.80
2023-05-13T22:48:06.140Z,10.80
2023-05-13T22:50:33.736Z,10.80
2023-05-13T22:53:02.698Z,10.70
2023-05-13T22:55:30.002Z,10.70
2023-05-13T22:57:58.632Z,10.70
2023-05-13T23:00:26.104Z,10.70
2023-05-13T23:02:56.126Z,10.70
2023-05-13T23:05:23.646Z,10.70
2023-05-13T23:07:51.214Z,10.60
2023-05-13T23:10:18.765Z,10.60
2023-05-13T23:12:46.645Z,10.60
2023-05-13T23:15:16.045Z,10.60
2023-05-13T23:17:43.883Z,10.80
2023-05-13T23:20:11.794Z,10.80
2023-05-13T23:22:39.695Z,10.90
2023-05-13T23:25:09.174Z,11.00
2023-05-13T23:27:36.828Z,11.00
2023-05-13T23:30:04.608Z,11.10
2023-05-13T23:32:32.430Z,11.10
2023-05-13T23:34:59.813Z,11.00
2023-05-13T23:37:31.181Z,10.90
2023-05-13T23:39:58.361Z,10.80
2023-05-13T23:42:26.274Z,10.80
2023-05-13T23:44:53.891Z,10.70
2023-05-13T23:47:21.746Z,10.60
2023-05-13T23:49:48.949Z,10.60
2023-05-13T23:52:17.212Z,10.60
2023-05-13T23:54:44.644Z,10.50
2023-05-13T23:57:12.109Z,10.50
2023-05-13T23:59:39.598Z,10.50
